createdAt,value
2022-12-01T00:00:09.150Z,8.50
2022-12-01T00:00:21.049Z,8.50
2022-12-01T00:00:32.800Z,8.50
2022-12-01T00:00:44.634Z,8.50
2022-12-01T00:00:56.342Z,8.50
2022-12-01T00:01:08.518Z,8.50
2022-12-01T00:01:20.469Z,8.50
2022-12-01T00:01:32.174Z,8.50
2022-12-01T00:01:44.112Z,8.50
2022-12-01T00:01:56.687Z,8.50
2022-12-01T00:02:08.625Z,8.50
2022-12-01T00:02:21.023Z,8.50
2022-12-01T00:02:33.052Z,8.50
2022-12-01T00:02:45.092Z,8.50
2022-12-01T00:02:56.957Z,8.50
2022-12-01T00:03:09.196Z,8.50
2022-12-01T00:03:21.282Z,8.50
2022-12-01T00:03:33.259Z,8.50
2022-12-01T00:03:45.136Z,8.40
2022-12-01T00:03:56.942Z,8.40
2022-12-01T00:04:08.699Z,8.40
2022-12-01T00:04:20.500Z,8.40
2022-12-01T00:04:32.332Z,8.40
2022-12-01T00:04:44.095Z,8.30
2022-12-01T00:04:56.329Z,8.30
2022-12-01T00:05:08.613Z,8.30
2022-12-01T00:05:20.506Z,8.30
2022-12-01T00:05:32.292Z,8.20
2022-12-01T00:05:44.080Z,8.20
2022-12-01T00:06:00.372Z,8.20
2022-12-01T00:06:16.529Z,8.20
2022-12-01T00:06:28.290Z,8.20
2022-12-01T00:06:41.432Z,8.10
2022-12-01T00:06:53.145Z,8.20
2022-12-01T00:07:04.860Z,8.10
2022-12-01T00:07:16.610Z,8.10
2022-12-01T00:07:28.375Z,8.10
2022-12-01T00:07:40.232Z,8.20
2022-12-01T00:07:52.185Z,8.20
2022-12-01T00:08:05.339Z,8.20
2022-12-01T00:08:17.177Z,8.20
2022-12-01T00:08:29.405Z,8.20
2022-12-01T00:08:41.553Z,8.20
2022-12-01T00:09:16.470Z,8.20
2022-12-01T00:09:48.980Z,8.20
2022-12-01T00:10:19.509Z,8.30
2022-12-01T00:10:33.719Z,8.30
2022-12-01T00:10:45.585Z,8.30
2022-12-01T00:11:04.958Z,8.30
2022-12-01T00:11:16.703Z,8.30
2022-12-01T00:11:28.525Z,8.40
2022-12-01T00:11:40.298Z,8.40
2022-12-01T00:11:52.030Z,8.40
2022-12-01T00:12:04.379Z,8.40
2022-12-01T00:12:16.096Z,8.40
2022-12-01T00:12:29.383Z,8.40
2022-12-01T00:12:43.556Z,8.40
2022-12-01T00:13:00.277Z,8.40
2022-12-01T00:13:12.021Z,8.40
2022-12-01T00:13:23.771Z,8.40
2022-12-01T00:13:35.755Z,8.50
2022-12-01T00:13:47.531Z,8.40
2022-12-01T00:13:59.329Z,8.50
2022-12-01T00:14:11.451Z,8.50
2022-12-01T00:14:23.269Z,8.50
2022-12-01T00:14:35.049Z,8.50
2022-12-01T00:14:54.730Z,8.50
2022-12-01T00:15:06.746Z,8.50
2022-12-01T00:15:18.516Z,8.50
2022-12-01T00:15:34.527Z,8.60
2022-12-01T00:15:46.390Z,8.60
2022-12-01T00:15:58.230Z,8.60
2022-12-01T00:16:16.895Z,8.60
2022-12-01T00:16:29.069Z,8.60
2022-12-01T00:16:41.129Z,8.60
2022-12-01T00:16:53.113Z,8.60
2022-12-01T00:17:05.818Z,8.60
2022-12-01T00:17:17.600Z,8.60
2022-12-01T00:17:30.117Z,8.60
2022-12-01T00:17:43.953Z,8.60
2022-12-01T00:17:56.002Z,8.60
2022-12-01T00:18:07.889Z,8.60
2022-12-01T00:18:19.714Z,8.60
2022-12-01T00:18:31.460Z,8.60
2022-12-01T00:18:43.636Z,8.60
2022-12-01T00:18:55.498Z,8.50
2022-12-01T00:19:07.607Z,8.50
2022-12-01T00:19:19.410Z,8.50
2022-12-01T00:19:32.148Z,8.50
2022-12-01T00:19:43.921Z,8.50
2022-12-01T00:19:56.305Z,8.50
2022-12-01T00:20:08.610Z,8.50
2022-12-01T00:20:20.559Z,8.50
2022-12-01T00:20:35.700Z,8.50
2022-12-01T00:20:50.938Z,8.50
2022-12-01T00:21:03.164Z,8.50
2022-12-01T00:21:16.207Z,8.50
2022-12-01T00:21:28.056Z,8.50
2022-12-01T00:21:39.822Z,8.50
2022-12-01T00:21:51.565Z,8.50
2022-12-01T00:22:03.477Z,8.50
2022-12-01T00:22:15.237Z,8.50
2022-12-01T00:22:27.044Z,8.50
2022-12-01T00:22:42.637Z,8.50
2022-12-01T00:22:54.489Z,8.50
2022-12-01T00:23:06.396Z,8.50
2022-12-01T00:23:18.198Z,8.50
2022-12-01T00:23:29.987Z,8.50
2022-12-01T00:23:49.951Z,8.50
2022-12-01T00:24:01.713Z,8.60
2022-12-01T00:24:13.907Z,8.50
2022-12-01T00:24:25.697Z,8.50
2022-12-01T00:24:37.489Z,8.50
2022-12-01T00:24:49.304Z,8.50
2022-12-01T00:25:01.069Z,8.50
2022-12-01T00:25:13.744Z,8.50
2022-12-01T00:25:25.516Z,8.50
2022-12-01T00:25:37.359Z,8.50
2022-12-01T00:25:49.358Z,8.60
2022-12-01T00:26:05.122Z,8.60
2022-12-01T00:26:17.933Z,8.60
2022-12-01T00:26:29.756Z,8.60
2022-12-01T00:26:41.541Z,8.60
2022-12-01T00:26:53.524Z,8.60
2022-12-01T00:27:05.412Z,8.60
2022-12-01T00:27:17.228Z,8.60
2022-12-01T00:27:29.011Z,8.60
2022-12-01T00:27:41.130Z,8.60
2022-12-01T00:27:53.217Z,8.60
2022-12-01T00:28:05.010Z,8.60
2022-12-01T00:28:16.876Z,8.70
2022-12-01T00:28:28.677Z,8.70
2022-12-01T00:28:40.464Z,8.70
2022-12-01T00:28:53.879Z,8.70
2022-12-01T00:29:05.663Z,8.70
2022-12-01T00:29:17.480Z,8.70
2022-12-01T00:29:29.301Z,8.70
2022-12-01T00:29:41.055Z,8.70
2022-12-01T00:29:53.566Z,8.70
2022-12-01T00:30:07.086Z,8.70
2022-12-01T00:30:20.397Z,8.70
2022-12-01T00:30:32.347Z,8.70
2022-12-01T00:30:44.177Z,8.70
2022-12-01T00:30:55.868Z,8.80
2022-12-01T00:31:11.790Z,8.80
2022-12-01T00:31:23.914Z,8.70
2022-12-01T00:31:36.032Z,8.70
2022-12-01T00:31:48.008Z,8.70
2022-12-01T00:31:59.781Z,8.80
2022-12-01T00:32:11.610Z,8.80
2022-12-01T00:32:23.420Z,8.80
2022-12-01T00:32:35.238Z,8.80
2022-12-01T00:32:47.323Z,8.80
2022-12-01T00:32:59.231Z,8.80
2022-12-01T00:33:10.998Z,8.80
2022-12-01T00:33:22.734Z,8.80
2022-12-01T00:33:34.518Z,8.80
2022-12-01T00:33:46.410Z,8.80
2022-12-01T00:33:58.131Z,8.80
2022-12-01T00:34:24.014Z,8.80
2022-12-01T00:34:37.882Z,8.80
2022-12-01T00:34:49.616Z,8.80
2022-12-01T00:35:01.479Z,8.80
2022-12-01T00:35:13.819Z,8.80
2022-12-01T00:35:25.630Z,8.80
2022-12-01T00:35:37.418Z,8.80
2022-12-01T00:35:49.160Z,8.80
2022-12-01T00:36:01.281Z,8.80
2022-12-01T00:36:13.062Z,8.70
2022-12-01T00:36:24.912Z,8.70
2022-12-01T00:36:36.671Z,8.70
2022-12-01T00:36:48.422Z,8.70
2022-12-01T00:37:00.406Z,8.60
2022-12-01T00:37:12.245Z,8.60
2022-12-01T00:37:24.113Z,8.60
2022-12-01T00:37:35.972Z,8.60
2022-12-01T00:37:47.704Z,8.60
2022-12-01T00:37:59.485Z,8.70
2022-12-01T00:38:11.221Z,8.70
2022-12-01T00:38:23.002Z,8.60
2022-12-01T00:38:34.902Z,8.60
2022-12-01T00:38:46.871Z,8.70
2022-12-01T00:38:58.722Z,8.60
2022-12-01T00:39:10.436Z,8.70
2022-12-01T00:39:22.243Z,8.70
2022-12-01T00:39:34.027Z,8.60
2022-12-01T00:39:46.578Z,8.60
2022-12-01T00:39:58.915Z,8.60
2022-12-01T00:40:11.458Z,8.60
2022-12-01T00:40:23.243Z,8.60
2022-12-01T00:40:35.038Z,8.60
2022-12-01T00:40:46.780Z,8.60
2022-12-01T00:40:58.524Z,8.60
2022-12-01T00:41:10.304Z,8.60
2022-12-01T00:41:22.524Z,8.60
2022-12-01T00:41:34.440Z,8.60
2022-12-01T00:41:46.247Z,8.60
2022-12-01T00:41:58.232Z,8.60
2022-12-01T00:42:13.227Z,8.60
2022-12-01T00:42:25.616Z,8.60
2022-12-01T00:42:37.524Z,8.70
2022-12-01T00:42:49.302Z,8.60
2022-12-01T00:43:01.067Z,8.60
2022-12-01T00:43:12.856Z,8.70
2022-12-01T00:43:25.049Z,8.60
2022-12-01T00:43:36.893Z,8.70
2022-12-01T00:43:48.689Z,8.60
2022-12-01T00:44:00.486Z,8.60
2022-12-01T00:44:12.284Z,8.60
2022-12-01T00:44:24.128Z,8.70
2022-12-01T00:44:35.903Z,8.60
2022-12-01T00:44:48.169Z,8.60
2022-12-01T00:44:59.916Z,8.70
2022-12-01T00:45:11.644Z,8.70
2022-12-01T00:45:23.405Z,8.70
2022-12-01T00:45:35.203Z,8.70
2022-12-01T00:45:47.085Z,8.70
2022-12-01T00:45:59.120Z,8.70
2022-12-01T00:46:10.979Z,8.80
2022-12-01T00:46:22.855Z,8.80
2022-12-01T00:46:34.734Z,8.80
2022-12-01T00:46:46.513Z,8.80
2022-12-01T00:46:58.258Z,8.80
2022-12-01T00:47:10.253Z,8.80
2022-12-01T00:47:22.008Z,8.80
2022-12-01T00:47:35.779Z,8.80
2022-12-01T00:47:47.574Z,8.70
2022-12-01T00:47:59.303Z,8.70
2022-12-01T00:48:11.026Z,8.70
2022-12-01T00:48:23.063Z,8.70
2022-12-01T00:48:34.935Z,8.70
2022-12-01T00:48:46.809Z,8.70
2022-12-01T00:48:58.540Z,8.70
2022-12-01T00:49:12.481Z,8.70
2022-12-01T00:49:24.245Z,8.80
2022-12-01T00:49:35.988Z,8.70
2022-12-01T00:49:50.089Z,8.70
2022-12-01T00:50:02.825Z,8.70
2022-12-01T00:50:14.626Z,8.70
2022-12-01T00:50:27.063Z,8.70
2022-12-01T00:50:38.810Z,8.70
2022-12-01T00:50:54.086Z,8.80
2022-12-01T00:51:06.008Z,8.80
2022-12-01T00:51:17.800Z,8.80
2022-12-01T00:51:29.619Z,8.80
2022-12-01T00:51:41.588Z,8.80
2022-12-01T00:51:53.436Z,8.80
2022-12-01T00:52:05.416Z,8.80
2022-12-01T00:52:17.567Z,8.80
2022-12-01T00:52:29.341Z,8.80
2022-12-01T00:52:41.086Z,8.80
2022-12-01T00:52:53.177Z,8.80
2022-12-01T00:53:04.925Z,8.80
2022-12-01T00:53:16.635Z,8.80
2022-12-01T00:53:28.379Z,8.80
2022-12-01T00:53:40.123Z,8.80
2022-12-01T00:53:51.855Z,8.80
2022-12-01T00:54:03.801Z,8.90
2022-12-01T00:54:15.521Z,8.90
2022-12-01T00:54:27.259Z,8.90
2022-12-01T00:54:39.629Z,8.80
2022-12-01T00:54:51.437Z,8.80
2022-12-01T00:55:03.352Z,8.80
2022-12-01T00:55:15.230Z,8.80
2022-12-01T00:55:27.061Z,8.80
2022-12-01T00:55:40.732Z,8.80
2022-12-01T00:55:53.968Z,8.80
2022-12-01T00:56:06.008Z,8.80
2022-12-01T00:56:17.757Z,8.80
2022-12-01T00:56:29.581Z,8.80
2022-12-01T00:56:41.317Z,8.80
2022-12-01T00:57:18.694Z,8.80
2022-12-01T00:57:30.493Z,8.80
2022-12-01T00:57:42.290Z,8.70
2022-12-01T00:57:54.056Z,8.70
2022-12-01T00:58:05.865Z,8.70
2022-12-01T00:58:17.648Z,8.70
2022-12-01T00:58:29.426Z,8.70
2022-12-01T00:58:41.165Z,8.70
2022-12-01T00:58:52.980Z,8.70
2022-12-01T00:59:04.747Z,8.70
2022-12-01T00:59:16.626Z,8.70
2022-12-01T00:59:28.430Z,8.70
2022-12-01T00:59:40.278Z,8.70
2022-12-01T00:59:52.114Z,8.70
2022-12-01T01:00:05.896Z,8.70
2022-12-01T01:00:18.071Z,8.70
2022-12-01T01:00:29.837Z,8.70
2022-12-01T01:00:42.805Z,8.70
2022-12-01T01:00:59.207Z,8.70
2022-12-01T01:01:11.019Z,8.70
2022-12-01T01:01:22.944Z,8.70
2022-12-01T01:01:35.179Z,8.70
2022-12-01T01:01:47.536Z,8.70
2022-12-01T01:01:59.447Z,8.70
2022-12-01T01:02:11.329Z,8.70
2022-12-01T01:02:23.143Z,8.70
2022-12-01T01:02:35.396Z,8.70
2022-12-01T01:02:47.250Z,8.70
2022-12-01T01:02:59.071Z,8.70
2022-12-01T01:03:11.127Z,8.70
2022-12-01T01:03:22.936Z,8.70
2022-12-01T01:03:34.880Z,8.70
2022-12-01T01:03:46.664Z,8.60
2022-12-01T01:03:58.618Z,8.60
2022-12-01T01:04:10.347Z,8.60
2022-12-01T01:04:22.283Z,8.60
2022-12-01T01:04:35.390Z,8.60
2022-12-01T01:04:47.194Z,8.60
2022-12-01T01:04:59.094Z,8.50
2022-12-01T01:05:10.922Z,8.50
2022-12-01T01:05:23.305Z,8.50
2022-12-01T01:05:40.342Z,8.50
2022-12-01T01:05:52.174Z,8.40
2022-12-01T01:06:09.257Z,8.40
2022-12-01T01:06:21.050Z,8.40
2022-12-01T01:06:32.864Z,8.50
2022-12-01T01:06:44.619Z,8.50
2022-12-01T01:06:56.365Z,8.50
2022-12-01T01:07:08.147Z,8.50
2022-12-01T01:07:20.392Z,8.50
2022-12-01T01:07:32.249Z,8.50
2022-12-01T01:07:44.041Z,8.50
2022-12-01T01:07:55.869Z,8.50
2022-12-01T01:08:08.952Z,8.50
2022-12-01T01:08:20.954Z,8.50
2022-12-01T01:08:32.716Z,8.50
2022-12-01T01:08:44.477Z,8.50
2022-12-01T01:08:56.299Z,8.50
2022-12-01T01:09:08.151Z,8.50
2022-12-01T01:09:19.878Z,8.60
2022-12-01T01:09:32.755Z,8.60
2022-12-01T01:09:44.465Z,8.50
2022-12-01T01:09:56.278Z,8.50
2022-12-01T01:10:08.688Z,8.60
2022-12-01T01:10:21.499Z,8.60
2022-12-01T01:10:33.383Z,8.50
2022-12-01T01:10:46.859Z,8.60
2022-12-01T01:10:59.957Z,8.60
2022-12-01T01:11:12.268Z,8.60
2022-12-01T01:11:24.006Z,8.60
2022-12-01T01:11:36.035Z,8.60
2022-12-01T01:11:47.821Z,8.60
2022-12-01T01:11:59.693Z,8.60
2022-12-01T01:12:11.466Z,8.50
2022-12-01T01:12:23.277Z,8.60
2022-12-01T01:12:35.045Z,8.60
2022-12-01T01:12:46.822Z,8.60
2022-12-01T01:12:58.568Z,8.50
2022-12-01T01:13:10.640Z,8.50
2022-12-01T01:13:22.355Z,8.50
2022-12-01T01:13:34.320Z,8.60
2022-12-01T01:13:46.151Z,8.60
2022-12-01T01:13:59.807Z,8.50
2022-12-01T01:14:11.601Z,8.50
2022-12-01T01:14:24.111Z,8.60
2022-12-01T01:14:35.868Z,8.50
2022-12-01T01:14:47.639Z,8.50
2022-12-01T01:14:59.438Z,8.50
2022-12-01T01:15:11.248Z,8.60
2022-12-01T01:15:23.070Z,8.60
2022-12-01T01:15:34.828Z,8.60
2022-12-01T01:15:56.899Z,8.60
2022-12-01T01:16:16.927Z,8.60
2022-12-01T01:16:28.748Z,8.60
2022-12-01T01:16:40.495Z,8.60
2022-12-01T01:16:52.416Z,8.50
2022-12-01T01:17:04.363Z,8.50
2022-12-01T01:17:16.136Z,8.50
2022-12-01T01:17:27.898Z,8.50
2022-12-01T01:17:39.626Z,8.50
2022-12-01T01:17:51.360Z,8.40
2022-12-01T01:18:03.336Z,8.50
2022-12-01T01:18:15.122Z,8.50
2022-12-01T01:18:27.123Z,8.50
2022-12-01T01:18:38.858Z,8.50
2022-12-01T01:18:50.668Z,8.50
2022-12-01T01:19:02.511Z,8.50
2022-12-01T01:19:14.261Z,8.60
2022-12-01T01:19:26.068Z,8.60
2022-12-01T01:19:37.835Z,8.60
2022-12-01T01:19:49.797Z,8.60
2022-12-01T01:20:01.836Z,8.60
2022-12-01T01:20:13.866Z,8.60
2022-12-01T01:20:25.665Z,8.60
2022-12-01T01:20:37.463Z,8.60
2022-12-01T01:20:58.938Z,8.60
2022-12-01T01:21:15.645Z,8.50
2022-12-01T01:21:27.542Z,8.60
2022-12-01T01:21:39.400Z,8.60
2022-12-01T01:21:51.148Z,8.60
2022-12-01T01:22:02.928Z,8.60
2022-12-01T01:22:14.774Z,8.60
2022-12-01T01:22:26.517Z,8.50
2022-12-01T01:22:38.320Z,8.50
2022-12-01T01:22:50.136Z,8.40
2022-12-01T01:23:01.962Z,8.40
2022-12-01T01:23:13.680Z,8.40
2022-12-01T01:23:25.537Z,8.50
2022-12-01T01:23:37.470Z,8.50
2022-12-01T01:23:49.999Z,8.50
2022-12-01T01:24:01.829Z,8.50
2022-12-01T01:24:13.559Z,8.50
2022-12-01T01:24:25.356Z,8.50
2022-12-01T01:24:37.332Z,8.50
2022-12-01T01:24:49.523Z,8.50
2022-12-01T01:25:01.263Z,8.50
2022-12-01T01:25:13.105Z,8.40
2022-12-01T01:25:24.967Z,8.50
2022-12-01T01:25:36.684Z,8.50
2022-12-01T01:25:48.564Z,8.50
2022-12-01T01:26:18.157Z,8.50
2022-12-01T01:26:31.266Z,8.50
2022-12-01T01:26:43.103Z,8.50
2022-12-01T01:26:55.399Z,8.50
2022-12-01T01:27:07.181Z,8.50
2022-12-01T01:27:18.915Z,8.60
2022-12-01T01:27:30.619Z,8.60
2022-12-01T01:27:42.320Z,8.60
2022-12-01T01:27:54.082Z,8.60
2022-12-01T01:28:05.839Z,8.60
2022-12-01T01:28:19.741Z,8.60
2022-12-01T01:28:31.853Z,8.60
2022-12-01T01:28:43.704Z,8.60
2022-12-01T01:28:59.110Z,8.60
2022-12-01T01:29:10.836Z,8.60
2022-12-01T01:29:22.583Z,8.60
2022-12-01T01:29:34.416Z,8.60
2022-12-01T01:29:46.414Z,8.60
2022-12-01T01:29:58.370Z,8.60
2022-12-01T01:30:11.032Z,8.60
2022-12-01T01:30:22.829Z,8.70
2022-12-01T01:30:34.694Z,8.70
2022-12-01T01:30:46.861Z,8.70
2022-12-01T01:30:59.307Z,8.70
2022-12-01T01:31:14.272Z,8.70
2022-12-01T01:31:27.233Z,8.70
2022-12-01T01:31:39.195Z,8.80
2022-12-01T01:31:51.206Z,8.70
2022-12-01T01:32:04.204Z,8.70
2022-12-01T01:32:16.027Z,8.70
2022-12-01T01:32:27.833Z,8.80
2022-12-01T01:32:39.579Z,8.80
2022-12-01T01:32:51.360Z,8.80
2022-12-01T01:33:03.223Z,8.80
2022-12-01T01:33:15.017Z,8.80
2022-12-01T01:33:26.798Z,8.80
2022-12-01T01:33:38.624Z,8.80
2022-12-01T01:33:50.446Z,8.80
2022-12-01T01:34:03.289Z,8.80
2022-12-01T01:34:15.058Z,8.80
2022-12-01T01:34:26.796Z,8.80
2022-12-01T01:34:38.556Z,8.80
2022-12-01T01:34:50.329Z,8.90
2022-12-01T01:35:02.109Z,8.80
2022-12-01T01:35:13.924Z,8.80
2022-12-01T01:35:25.703Z,8.80
2022-12-01T01:35:37.474Z,8.80
2022-12-01T01:35:49.286Z,8.80
2022-12-01T01:36:01.412Z,8.70
2022-12-01T01:36:14.185Z,8.70
2022-12-01T01:36:26.113Z,8.70
2022-12-01T01:36:37.878Z,8.70
2022-12-01T01:36:49.831Z,8.70
2022-12-01T01:37:01.605Z,8.70
2022-12-01T01:37:13.384Z,8.70
2022-12-01T01:37:25.189Z,8.70
2022-12-01T01:37:36.973Z,8.70
2022-12-01T01:37:50.804Z,8.70
2022-12-01T01:38:02.599Z,8.60
2022-12-01T01:38:14.412Z,8.70
2022-12-01T01:38:26.981Z,8.60
2022-12-01T01:38:38.935Z,8.60
2022-12-01T01:38:55.177Z,8.60
2022-12-01T01:39:07.000Z,8.60
2022-12-01T01:39:18.832Z,8.70
2022-12-01T01:39:30.689Z,8.60
2022-12-01T01:39:42.502Z,8.60
2022-12-01T01:39:54.253Z,8.60
2022-12-01T01:40:07.283Z,8.60
2022-12-01T01:40:19.131Z,8.70
2022-12-01T01:40:30.852Z,8.70
2022-12-01T01:40:46.807Z,8.60
2022-12-01T01:40:58.622Z,8.60
2022-12-01T01:41:10.706Z,8.60
2022-12-01T01:41:22.874Z,8.70
2022-12-01T01:41:34.626Z,8.60
2022-12-01T01:41:46.336Z,8.60
2022-12-01T01:41:58.088Z,8.60
2022-12-01T01:42:20.222Z,8.60
2022-12-01T01:42:32.027Z,8.60
2022-12-01T01:42:43.834Z,8.60
2022-12-01T01:42:55.544Z,8.70
2022-12-01T01:43:18.495Z,8.60
2022-12-01T01:43:42.336Z,8.60
2022-12-01T01:43:57.144Z,8.60
2022-12-01T01:44:52.899Z,8.60
2022-12-01T01:45:11.192Z,8.60
2022-12-01T01:45:29.347Z,8.60
2022-12-01T01:45:41.132Z,8.70
2022-12-01T01:45:52.951Z,8.60
2022-12-01T01:46:09.136Z,8.60
2022-12-01T01:46:34.391Z,8.60
2022-12-01T01:46:46.185Z,8.70
2022-12-01T01:46:57.939Z,8.70
2022-12-01T01:47:09.859Z,8.70
2022-12-01T01:47:38.458Z,8.70
2022-12-01T01:47:51.892Z,8.70
2022-12-01T01:48:04.478Z,8.70
2022-12-01T01:48:16.280Z,8.70
2022-12-01T01:48:28.009Z,8.60
2022-12-01T01:48:40.674Z,8.60
2022-12-01T01:49:04.415Z,8.60
2022-12-01T01:49:16.164Z,8.60
2022-12-01T01:49:27.983Z,8.60
2022-12-01T01:49:40.116Z,8.60
2022-12-01T01:49:52.273Z,8.60
2022-12-01T01:50:14.305Z,8.70
2022-12-01T01:50:27.407Z,8.60
2022-12-01T01:50:39.207Z,8.60
2022-12-01T01:50:50.993Z,8.60
2022-12-01T01:51:02.734Z,8.60
2022-12-01T01:51:15.013Z,8.50
2022-12-01T01:51:38.451Z,8.50
2022-12-01T01:51:51.684Z,8.50
2022-12-01T01:52:04.649Z,8.50
2022-12-01T01:52:16.663Z,8.50
2022-12-01T01:52:28.380Z,8.50
2022-12-01T01:52:48.876Z,8.50
2022-12-01T01:53:08.612Z,8.50
2022-12-01T01:53:20.387Z,8.50
2022-12-01T01:53:32.102Z,8.50
2022-12-01T01:53:43.905Z,8.50
2022-12-01T01:53:58.549Z,8.60
2022-12-01T01:54:17.335Z,8.60
2022-12-01T01:54:33.629Z,8.50
2022-12-01T01:54:48.168Z,8.50
2022-12-01T01:54:59.891Z,8.50
2022-12-01T01:55:12.241Z,8.50
2022-12-01T01:55:24.032Z,8.50
2022-12-01T01:55:36.128Z,8.50
2022-12-01T01:55:47.885Z,8.40
2022-12-01T01:55:59.829Z,8.50
2022-12-01T01:56:11.614Z,8.50
2022-12-01T01:56:23.615Z,8.40
2022-12-01T01:56:36.427Z,8.40
2022-12-01T01:56:48.539Z,8.50
2022-12-01T01:57:00.993Z,8.40
2022-12-01T01:57:14.489Z,8.40
2022-12-01T01:57:30.759Z,8.40
2022-12-01T01:57:42.586Z,8.40
2022-12-01T01:57:54.366Z,8.40
2022-12-01T01:58:08.129Z,8.40
2022-12-01T01:58:19.895Z,8.40
2022-12-01T01:58:32.068Z,8.40
2022-12-01T01:58:43.884Z,8.40
2022-12-01T01:58:55.739Z,8.40
2022-12-01T01:59:07.492Z,8.40
2022-12-01T01:59:27.213Z,8.40
2022-12-01T01:59:49.123Z,8.40
2022-12-01T02:00:12.962Z,8.40
2022-12-01T02:00:24.867Z,8.40
2022-12-01T02:00:38.217Z,8.40
2022-12-01T02:00:50.091Z,8.40
2022-12-01T02:01:02.011Z,8.40
2022-12-01T02:01:13.911Z,8.40
2022-12-01T02:01:25.840Z,8.40
2022-12-01T02:01:37.609Z,8.50
2022-12-01T02:01:52.853Z,8.50
2022-12-01T02:02:09.078Z,8.40
2022-12-01T02:02:21.011Z,8.50
2022-12-01T02:02:33.118Z,8.50
2022-12-01T02:02:46.313Z,8.40
2022-12-01T02:02:58.234Z,8.40
2022-12-01T02:03:11.088Z,8.40
2022-12-01T02:03:22.903Z,8.40
2022-12-01T02:03:34.744Z,8.40
2022-12-01T02:03:46.606Z,8.40
2022-12-01T02:03:58.391Z,8.40
2022-12-01T02:04:10.185Z,8.40
2022-12-01T02:04:21.904Z,8.40
2022-12-01T02:04:35.572Z,8.50
2022-12-01T02:04:50.944Z,8.50
2022-12-01T02:05:02.764Z,8.40
2022-12-01T02:05:23.746Z,8.40
2022-12-01T02:05:35.662Z,8.40
2022-12-01T02:05:47.483Z,8.40
2022-12-01T02:06:03.440Z,8.40
2022-12-01T02:06:16.810Z,8.40
2022-12-01T02:06:28.676Z,8.40
2022-12-01T02:06:40.435Z,8.40
2022-12-01T02:06:52.223Z,8.40
2022-12-01T02:07:04.771Z,8.40
2022-12-01T02:07:18.390Z,8.50
2022-12-01T02:07:30.223Z,8.50
2022-12-01T02:07:42.154Z,8.40
2022-12-01T02:07:56.081Z,8.40
2022-12-01T02:08:12.457Z,8.40
2022-12-01T02:08:24.321Z,8.40
2022-12-01T02:08:38.036Z,8.30
2022-12-01T02:08:49.840Z,8.30
2022-12-01T02:09:01.650Z,8.30
2022-12-01T02:09:13.443Z,8.30
2022-12-01T02:09:25.516Z,8.30
2022-12-01T02:09:37.248Z,8.30
2022-12-01T02:09:49.356Z,8.30
2022-12-01T02:10:01.328Z,8.30
2022-12-01T02:10:13.698Z,8.30
2022-12-01T02:10:51.029Z,8.30
2022-12-01T02:11:48.647Z,8.30
2022-12-01T02:12:18.963Z,8.40
2022-12-01T02:12:40.739Z,8.40
2022-12-01T02:13:10.325Z,8.30
2022-12-01T02:13:55.278Z,8.30
2022-12-01T02:14:13.710Z,8.40
2022-12-01T02:15:06.164Z,8.40
2022-12-01T02:15:45.943Z,8.40
2022-12-01T02:16:20.689Z,8.50
2022-12-01T02:16:48.399Z,8.50
2022-12-01T02:17:09.135Z,8.50
2022-12-01T02:17:52.176Z,8.50
2022-12-01T02:18:18.990Z,8.60
2022-12-01T02:18:48.495Z,8.60
2022-12-01T02:19:48.506Z,8.60
2022-12-01T02:20:32.357Z,8.60
2022-12-01T02:21:21.499Z,8.50
2022-12-01T02:22:03.556Z,8.50
2022-12-01T02:22:36.112Z,8.50
2022-12-01T02:22:54.404Z,8.50
2022-12-01T02:23:46.229Z,8.50
2022-12-01T02:24:46.780Z,8.50
2022-12-01T02:25:21.608Z,8.50
2022-12-01T02:26:44.315Z,8.50
2022-12-01T02:27:34.603Z,8.40
2022-12-01T02:28:14.961Z,8.40
2022-12-01T02:28:43.248Z,8.40
2022-12-01T02:29:14.161Z,8.40
2022-12-01T02:29:43.827Z,8.40
2022-12-01T02:30:30.017Z,8.40
2022-12-01T02:30:49.624Z,8.40
2022-12-01T02:31:16.497Z,8.40
2022-12-01T02:31:57.224Z,8.50
2022-12-01T02:33:11.925Z,8.40
2022-12-01T02:33:32.723Z,8.50
2022-12-01T02:34:02.163Z,8.50
2022-12-01T02:34:26.300Z,8.50
2022-12-01T02:35:10.628Z,8.50
2022-12-01T02:35:30.668Z,8.50
2022-12-01T02:36:01.797Z,8.30
2022-12-01T02:36:19.787Z,8.30
2022-12-01T02:37:06.500Z,8.30
2022-12-01T02:37:35.887Z,8.30
2022-12-01T02:38:29.284Z,8.30
2022-12-01T02:38:52.039Z,8.20
2022-12-01T02:39:13.491Z,8.20
2022-12-01T02:39:33.693Z,8.20
2022-12-01T02:40:02.449Z,8.20
2022-12-01T02:40:34.266Z,8.20
2022-12-01T02:41:06.505Z,8.30
2022-12-01T02:41:37.392Z,8.30
2022-12-01T02:41:55.490Z,8.30
2022-12-01T02:42:34.580Z,8.30
2022-12-01T02:44:07.312Z,8.30
2022-12-01T02:44:24.644Z,8.30
2022-12-01T02:44:40.141Z,8.30
2022-12-01T02:44:51.904Z,8.30
2022-12-01T02:45:10.657Z,8.30
2022-12-01T02:58:57.372Z,8.30
2022-12-01T02:59:14.189Z,8.30
2022-12-01T02:59:26.457Z,8.30
2022-12-01T02:59:39.081Z,8.30
2022-12-01T02:59:54.610Z,8.30
2022-12-01T03:00:33.645Z,8.40
2022-12-01T03:01:21.063Z,8.40
2022-12-01T03:02:43.164Z,8.40
2022-12-01T03:05:01.292Z,8.40
2022-12-01T03:05:29.380Z,8.40
2022-12-01T03:05:52.984Z,8.40
2022-12-01T03:06:17.061Z,8.40
2022-12-01T03:06:49.887Z,8.40
2022-12-01T03:07:37.653Z,8.40
2022-12-01T03:08:13.708Z,8.40
2022-12-01T03:08:47.961Z,8.50
2022-12-01T03:09:12.927Z,8.50
2022-12-01T03:09:46.051Z,8.50
2022-12-01T03:10:13.406Z,8.50
2022-12-01T03:10:40.073Z,8.50
2022-12-01T03:10:58.388Z,8.50
2022-12-01T03:11:26.790Z,8.50
2022-12-01T03:12:09.562Z,8.50
2022-12-01T03:12:56.591Z,8.50
2022-12-01T03:13:54.060Z,8.50
2022-12-01T03:14:26.378Z,8.50
2022-12-01T03:15:10.013Z,8.50
2022-12-01T03:15:42.441Z,8.60
2022-12-01T03:16:22.986Z,8.60
2022-12-01T03:16:51.042Z,8.60
2022-12-01T03:17:11.155Z,8.70
2022-12-01T03:17:28.773Z,8.70
2022-12-01T03:17:48.830Z,8.70
2022-12-01T03:18:22.440Z,8.70
2022-12-01T03:18:40.923Z,8.60
2022-12-01T03:19:03.296Z,8.60
2022-12-01T03:19:21.195Z,8.70
2022-12-01T03:19:54.013Z,8.60
2022-12-01T03:20:20.617Z,8.60
2022-12-01T03:20:42.561Z,8.60
2022-12-01T03:21:40.567Z,8.60
2022-12-01T03:22:12.824Z,8.60
2022-12-01T03:22:32.513Z,8.60
2022-12-01T03:22:54.145Z,8.60
2022-12-01T03:23:16.728Z,8.50
2022-12-01T03:23:31.271Z,8.50
2022-12-01T03:24:05.747Z,8.50
2022-12-01T03:24:19.525Z,8.50
2022-12-01T03:24:33.037Z,8.50
2022-12-01T03:24:47.159Z,8.50
2022-12-01T03:24:58.892Z,8.50
2022-12-01T03:25:12.009Z,8.50
2022-12-01T03:25:24.501Z,8.50
2022-12-01T03:25:37.926Z,8.50
2022-12-01T03:25:51.923Z,8.50
2022-12-01T03:26:06.974Z,8.50
2022-12-01T03:26:20.223Z,8.50
2022-12-01T03:26:32.865Z,8.50
2022-12-01T03:26:47.419Z,8.50
2022-12-01T03:27:00.103Z,8.50
2022-12-01T03:27:12.219Z,8.50
2022-12-01T03:27:27.994Z,8.50
2022-12-01T03:28:00.583Z,8.50
2022-12-01T03:28:22.916Z,8.50
2022-12-01T03:28:42.012Z,8.50
2022-12-01T03:28:57.952Z,8.50
2022-12-01T03:29:31.598Z,8.50
2022-12-01T03:29:45.631Z,8.50
2022-12-01T03:29:58.836Z,8.60
2022-12-01T03:30:11.440Z,8.50
2022-12-01T03:30:25.317Z,8.50
2022-12-01T03:30:37.304Z,8.50
2022-12-01T03:30:51.045Z,8.60
2022-12-01T03:31:07.052Z,8.50
2022-12-01T03:31:23.007Z,8.50
2022-12-01T03:31:42.677Z,8.50
2022-12-01T03:31:59.093Z,8.50
2022-12-01T03:32:20.439Z,8.50
2022-12-01T03:32:43.035Z,8.60
2022-12-01T03:33:09.682Z,8.60
2022-12-01T03:33:25.391Z,8.60
2022-12-01T03:33:46.413Z,8.60
2022-12-01T03:34:05.115Z,8.60
2022-12-01T03:34:47.631Z,8.60
2022-12-01T03:35:31.512Z,8.50
2022-12-01T03:35:54.129Z,8.40
2022-12-01T03:36:16.540Z,8.50
2022-12-01T03:36:35.739Z,8.50
2022-12-01T03:36:51.917Z,8.50
2022-12-01T03:37:12.275Z,8.50
2022-12-01T03:37:45.103Z,8.50
2022-12-01T03:38:23.926Z,8.50
2022-12-01T03:38:36.303Z,8.50
2022-12-01T03:38:52.626Z,8.50
2022-12-01T03:39:08.328Z,8.40
2022-12-01T03:39:23.802Z,8.40
2022-12-01T03:39:36.250Z,8.40
2022-12-01T03:39:48.625Z,8.50
2022-12-01T03:40:01.428Z,8.40
2022-12-01T03:40:18.092Z,8.40
2022-12-01T03:40:30.128Z,8.50
2022-12-01T03:40:41.915Z,8.50
2022-12-01T03:41:01.839Z,8.50
2022-12-01T03:41:18.391Z,8.50
2022-12-01T03:41:37.131Z,8.50
2022-12-01T03:41:59.436Z,8.40
2022-12-01T03:42:15.541Z,8.40
2022-12-01T03:42:36.935Z,8.40
2022-12-01T03:42:58.509Z,8.40
2022-12-01T03:43:13.609Z,8.40
2022-12-01T03:43:29.858Z,8.40
2022-12-01T03:43:44.614Z,8.40
2022-12-01T03:44:04.171Z,8.40
2022-12-01T03:44:20.739Z,8.50
2022-12-01T03:44:41.284Z,8.40
2022-12-01T03:44:56.436Z,8.50
2022-12-01T03:45:12.157Z,8.50
2022-12-01T03:45:36.746Z,8.50
2022-12-01T03:46:03.839Z,8.50
2022-12-01T03:46:29.601Z,8.50
2022-12-01T03:46:55.096Z,8.50
2022-12-01T03:47:10.646Z,8.50
2022-12-01T03:47:29.299Z,8.40
2022-12-01T03:47:41.131Z,8.50
2022-12-01T03:47:52.963Z,8.50
2022-12-01T03:48:05.303Z,8.50
2022-12-01T03:48:17.400Z,8.50
2022-12-01T03:48:29.226Z,8.40
2022-12-01T03:48:41.078Z,8.50
2022-12-01T03:48:54.293Z,8.50
2022-12-01T03:49:08.820Z,8.50
2022-12-01T03:49:20.908Z,8.50